sensor_id;sensor_type;location;lat;lon;timestamp;temperature;humidity
71291;DHT22;59073;51.994;4.448;2024-03-29T00:00:24;10.38;69.87
71291;DHT22;59073;51.994;4.448;2024-03-29T00:02:49;10.39;69.74
71291;DHT22;59073;51.994;4.448;2024-03-29T00:05:15;10.37;69.92
71291;DHT22;59073;51.994;4.448;2024-03-29T00:07:40;10.37;69.68
71291;DHT22;59073;51.994;4.448;2024-03-29T00:10:06;10.37;69.88
71291;DHT22;59073;51.994;4.448;2024-03-29T00:12:31;10.38;69.98
71291;DHT22;59073;51.994;4.448;2024-03-29T00:14:57;10.39;69.75
71291;DHT22;59073;51.994;4.448;2024-03-29T00:17:22;10.41;69.74
71291;DHT22;59073;51.994;4.448;2024-03-29T00:19:48;10.42;69.48
71291;DHT22;59073;51.994;4.448;2024-03-29T00:22:13;10.41;69.45
71291;DHT22;59073;51.994;4.448;2024-03-29T00:24:39;10.41;69.65
71291;DHT22;59073;51.994;4.448;2024-03-29T00:27:04;10.42;69.69
71291;DHT22;59073;51.994;4.448;2024-03-29T00:29:30;10.39;69.41
71291;DHT22;59073;51.994;4.448;2024-03-29T00:31:55;10.44;69.59
71291;DHT22;59073;51.994;4.448;2024-03-29T00:34:21;10.39;69.45
71291;DHT22;59073;51.994;4.448;2024-03-29T00:36:47;10.42;69.70
71291;DHT22;59073;51.994;4.448;2024-03-29T00:39:12;10.44;69.30
71291;DHT22;59073;51.994;4.448;2024-03-29T00:41:37;10.44;69.43
71291;DHT22;59073;51.994;4.448;2024-03-29T00:44:03;10.42;69.40
71291;DHT22;59073;51.994;4.448;2024-03-29T00:46:29;10.42;69.03
71291;DHT22;59073;51.994;4.448;2024-03-29T00:48:54;10.46;69.28
71291;DHT22;59073;51.994;4.448;2024-03-29T00:51:19;10.49;69.13
71291;DHT22;59073;51.994;4.448;2024-03-29T00:53:45;10.48;68.71
71291;DHT22;59073;51.994;4.448;2024-03-29T00:56:12;10.53;68.60
71291;DHT22;59073;51.994;4.448;2024-03-29T00:58:37;10.59;68.60
71291;DHT22;59073;51.994;4.448;2024-03-29T01:01:03;10.60;68.70
71291;DHT22;59073;51.994;4.448;2024-03-29T01:03:28;10.50;69.16
71291;DHT22;59073;51.994;4.448;2024-03-29T01:05:56;10.55;68.91
71291;DHT22;59073;51.994;4.448;2024-03-29T01:08:22;10.52;68.67
71291;DHT22;59073;51.994;4.448;2024-03-29T01:10:49;10.55;68.53
71291;DHT22;59073;51.994;4.448;2024-03-29T01:13:14;10.60;68.54
71291;DHT22;59073;51.994;4.448;2024-03-29T01:15:40;10.58;68.84
71291;DHT22;59073;51.994;4.448;2024-03-29T01:18:05;10.58;68.69
71291;DHT22;59073;51.994;4.448;2024-03-29T01:20:31;10.56;68.81
71291;DHT22;59073;51.994;4.448;2024-03-29T01:22:56;10.55;68.81
71291;DHT22;59073;51.994;4.448;2024-03-29T01:25:22;10.56;68.88
71291;DHT22;59073;51.994;4.448;2024-03-29T01:27:49;10.63;68.41
71291;DHT22;59073;51.994;4.448;2024-03-29T01:30:15;10.66;68.26
71291;DHT22;59073;51.994;4.448;2024-03-29T01:32:40;10.65;68.40
71291;DHT22;59073;51.994;4.448;2024-03-29T01:35:06;10.72;68.53
71291;DHT22;59073;51.994;4.448;2024-03-29T01:37:32;10.69;68.24
71291;DHT22;59073;51.994;4.448;2024-03-29T01:39:57;10.68;68.08
71291;DHT22;59073;51.994;4.448;2024-03-29T01:42:22;10.65;68.12
71291;DHT22;59073;51.994;4.448;2024-03-29T01:44:48;10.65;67.89
71291;DHT22;59073;51.994;4.448;2024-03-29T01:47:14;10.66;68.05
71291;DHT22;59073;51.994;4.448;2024-03-29T01:49:40;10.62;68.24
71291;DHT22;59073;51.994;4.448;2024-03-29T01:52:06;10.58;67.98
71291;DHT22;59073;51.994;4.448;2024-03-29T01:54:33;10.58;68.24
71291;DHT22;59073;51.994;4.448;2024-03-29T01:56:59;10.53;68.21
71291;DHT22;59073;51.994;4.448;2024-03-29T01:59:26;10.52;68.35
71291;DHT22;59073;51.994;4.448;2024-03-29T02:01:53;10.48;68.07
71291;DHT22;59073;51.994;4.448;2024-03-29T02:04:18;10.48;68.50
71291;DHT22;59073;51.994;4.448;2024-03-29T02:06:44;10.50;68.31
71291;DHT22;59073;51.994;4.448;2024-03-29T02:09:10;10.46;68.57
71291;DHT22;59073;51.994;4.448;2024-03-29T02:11:35;10.48;68.49
71291;DHT22;59073;51.994;4.448;2024-03-29T02:14:01;10.46;68.48
71291;DHT22;59073;51.994;4.448;2024-03-29T02:16:27;10.44;68.45
71291;DHT22;59073;51.994;4.448;2024-03-29T02:18:52;10.49;68.21
71291;DHT22;59073;51.994;4.448;2024-03-29T02:21:17;10.44;68.36
71291;DHT22;59073;51.994;4.448;2024-03-29T02:23:44;10.46;68.48
71291;DHT22;59073;51.994;4.448;2024-03-29T02:26:12;10.39;68.48
71291;DHT22;59073;51.994;4.448;2024-03-29T02:28:38;10.41;68.75
71291;DHT22;59073;51.994;4.448;2024-03-29T02:31:04;10.39;68.73
71291;DHT22;59073;51.994;4.448;2024-03-29T02:33:29;10.39;68.94
71291;DHT22;59073;51.994;4.448;2024-03-29T02:35:55;10.41;68.80
71291;DHT22;59073;51.994;4.448;2024-03-29T02:38:20;10.45;68.37
71291;DHT22;59073;51.994;4.448;2024-03-29T02:40:46;10.48;68.14
71291;DHT22;59073;51.994;4.448;2024-03-29T02:43:11;10.46;68.24
71291;DHT22;59073;51.994;4.448;2024-03-29T02:45:37;10.48;68.54
71291;DHT22;59073;51.994;4.448;2024-03-29T02:48:02;10.46;68.39
71291;DHT22;59073;51.994;4.448;2024-03-29T02:50:28;10.45;68.48
71291;DHT22;59073;51.994;4.448;2024-03-29T02:52:53;10.48;68.24
71291;DHT22;59073;51.994;4.448;2024-03-29T02:55:19;10.52;68.07
71291;DHT22;59073;51.994;4.448;2024-03-29T02:57:44;10.48;67.93
71291;DHT22;59073;51.994;4.448;2024-03-29T03:00:10;10.55;67.64
71291;DHT22;59073;51.994;4.448;2024-03-29T03:02:39;10.52;67.35
71291;DHT22;59073;51.994;4.448;2024-03-29T03:05:07;10.55;67.17
71291;DHT22;59073;51.994;4.448;2024-03-29T03:07:34;10.56;67.15
71291;DHT22;59073;51.994;4.448;2024-03-29T03:10:18;10.59;67.32
71291;DHT22;59073;51.994;4.448;2024-03-29T03:13:03;10.56;67.60
71291;DHT22;59073;51.994;4.448;2024-03-29T03:15:28;10.53;67.31
71291;DHT22;59073;51.994;4.448;2024-03-29T03:17:54;10.56;67.27
71291;DHT22;59073;51.994;4.448;2024-03-29T03:20:19;10.50;67.12
71291;DHT22;59073;51.994;4.448;2024-03-29T03:22:45;10.50;67.42
71291;DHT22;59073;51.994;4.448;2024-03-29T03:25:10;10.53;67.66
71291;DHT22;59073;51.994;4.448;2024-03-29T03:27:36;10.52;67.55
71291;DHT22;59073;51.994;4.448;2024-03-29T03:30:01;10.46;67.34
71291;DHT22;59073;51.994;4.448;2024-03-29T03:32:27;10.55;67.32
71291;DHT22;59073;51.994;4.448;2024-03-29T03:34:52;10.50;67.57
71291;DHT22;59073;51.994;4.448;2024-03-29T03:37:18;10.49;67.42
71291;DHT22;59073;51.994;4.448;2024-03-29T03:39:43;10.48;67.57
71291;DHT22;59073;51.994;4.448;2024-03-29T03:42:09;10.52;67.34
71291;DHT22;59073;51.994;4.448;2024-03-29T03:44:34;10.52;67.31
71291;DHT22;59073;51.994;4.448;2024-03-29T03:47:01;10.49;67.81
71291;DHT22;59073;51.994;4.448;2024-03-29T03:49:26;10.45;68.07
71291;DHT22;59073;51.994;4.448;2024-03-29T03:51:52;10.46;67.66
71291;DHT22;59073;51.994;4.448;2024-03-29T03:54:17;10.48;67.51
71291;DHT22;59073;51.994;4.448;2024-03-29T03:56:42;10.50;67.66
71291;DHT22;59073;51.994;4.448;2024-03-29T03:59:08;10.50;67.68
71291;DHT22;59073;51.994;4.448;2024-03-29T04:01:34;10.48;67.85
71291;DHT22;59073;51.994;4.448;2024-03-29T04:04:00;10.44;67.63
71291;DHT22;59073;51.994;4.448;2024-03-29T04:06:25;10.50;68.08
71291;DHT22;59073;51.994;4.448;2024-03-29T04:08:50;10.49;67.79
71291;DHT22;59073;51.994;4.448;2024-03-29T04:11:16;10.46;67.71
71291;DHT22;59073;51.994;4.448;2024-03-29T04:13:42;10.49;68.00
71291;DHT22;59073;51.994;4.448;2024-03-29T04:16:08;10.44;67.98
71291;DHT22;59073;51.994;4.448;2024-03-29T04:18:34;10.44;68.29
71291;DHT22;59073;51.994;4.448;2024-03-29T04:21:01;10.39;68.24
71291;DHT22;59073;51.994;4.448;2024-03-29T04:23:27;10.37;68.20
71291;DHT22;59073;51.994;4.448;2024-03-29T04:25:55;10.38;68.32
71291;DHT22;59073;51.994;4.448;2024-03-29T04:28:21;10.34;67.96
71291;DHT22;59073;51.994;4.448;2024-03-29T04:30:54;10.34;68.64
71291;DHT22;59073;51.994;4.448;2024-03-29T04:33:20;10.34;68.58
71291;DHT22;59073;51.994;4.448;2024-03-29T04:35:56;10.32;68.66
71291;DHT22;59073;51.994;4.448;2024-03-29T04:38:22;10.37;69.31
71291;DHT22;59073;51.994;4.448;2024-03-29T04:40:50;10.31;69.42
71291;DHT22;59073;51.994;4.448;2024-03-29T04:43:16;10.29;69.42
71291;DHT22;59073;51.994;4.448;2024-03-29T04:45:45;10.32;69.70
71291;DHT22;59073;51.994;4.448;2024-03-29T04:48:12;10.25;69.70
71291;DHT22;59073;51.994;4.448;2024-03-29T04:50:37;10.14;70.21
71291;DHT22;59073;51.994;4.448;2024-03-29T04:53:03;10.20;70.33
71291;DHT22;59073;51.994;4.448;2024-03-29T04:55:28;10.12;70.86
71291;DHT22;59073;51.994;4.448;2024-03-29T04:57:54;10.07;71.16
71291;DHT22;59073;51.994;4.448;2024-03-29T05:00:19;10.05;71.23
71291;DHT22;59073;51.994;4.448;2024-03-29T05:02:45;10.04;71.48
71291;DHT22;59073;51.994;4.448;2024-03-29T05:05:10;9.98;71.80
71291;DHT22;59073;51.994;4.448;2024-03-29T05:07:36;9.94;72.17
71291;DHT22;59073;51.994;4.448;2024-03-29T05:10:01;9.84;72.51
71291;DHT22;59073;51.994;4.448;2024-03-29T05:12:32;9.80;72.56
71291;DHT22;59073;51.994;4.448;2024-03-29T05:14:57;9.79;72.80
71291;DHT22;59073;51.994;4.448;2024-03-29T05:17:23;9.77;72.92
71291;DHT22;59073;51.994;4.448;2024-03-29T05:19:52;9.79;73.06
71291;DHT22;59073;51.994;4.448;2024-03-29T05:22:17;9.80;73.37
71291;DHT22;59073;51.994;4.448;2024-03-29T05:24:43;9.61;74.09
71291;DHT22;59073;51.994;4.448;2024-03-29T05:27:08;9.50;74.80
71291;DHT22;59073;51.994;4.448;2024-03-29T05:29:34;9.51;74.70
71291;DHT22;59073;51.994;4.448;2024-03-29T05:31:59;9.46;74.86
71291;DHT22;59073;51.994;4.448;2024-03-29T05:34:24;9.50;74.92
71291;DHT22;59073;51.994;4.448;2024-03-29T05:36:50;9.50;75.42
71291;DHT22;59073;51.994;4.448;2024-03-29T05:39:15;9.44;76.31
71291;DHT22;59073;51.994;4.448;2024-03-29T05:41:41;9.39;76.62
71291;DHT22;59073;51.994;4.448;2024-03-29T05:44:06;9.38;76.81
71291;DHT22;59073;51.994;4.448;2024-03-29T05:46:32;9.44;76.77
71291;DHT22;59073;51.994;4.448;2024-03-29T05:48:57;9.44;76.64
71291;DHT22;59073;51.994;4.448;2024-03-29T05:51:23;9.44;76.90
71291;DHT22;59073;51.994;4.448;2024-03-29T05:53:48;9.44;76.86
71291;DHT22;59073;51.994;4.448;2024-03-29T05:56:13;9.42;76.88
71291;DHT22;59073;51.994;4.448;2024-03-29T05:58:39;9.38;77.14
71291;DHT22;59073;51.994;4.448;2024-03-29T06:01:04;9.40;77.21
71291;DHT22;59073;51.994;4.448;2024-03-29T06:03:30;9.40;77.30
71291;DHT22;59073;51.994;4.448;2024-03-29T06:05:55;9.40;77.51
71291;DHT22;59073;51.994;4.448;2024-03-29T06:08:21;9.49;77.23
71291;DHT22;59073;51.994;4.448;2024-03-29T06:10:48;9.44;77.49
71291;DHT22;59073;51.994;4.448;2024-03-29T06:13:14;9.42;77.56
71291;DHT22;59073;51.994;4.448;2024-03-29T06:15:57;9.43;77.87
71291;DHT22;59073;51.994;4.448;2024-03-29T06:18:41;9.39;78.51
71291;DHT22;59073;51.994;4.448;2024-03-29T06:21:07;9.43;78.26
71291;DHT22;59073;51.994;4.448;2024-03-29T06:23:33;9.39;78.70
71291;DHT22;59073;51.994;4.448;2024-03-29T06:25:58;9.33;79.09
71291;DHT22;59073;51.994;4.448;2024-03-29T06:28:24;9.40;79.18
71291;DHT22;59073;51.994;4.448;2024-03-29T06:30:49;9.36;79.41
71291;DHT22;59073;51.994;4.448;2024-03-29T06:33:14;9.38;79.67
71291;DHT22;59073;51.994;4.448;2024-03-29T06:35:40;9.39;79.53
71291;DHT22;59073;51.994;4.448;2024-03-29T06:38:05;9.38;79.69
71291;DHT22;59073;51.994;4.448;2024-03-29T06:40:31;9.57;79.63
71291;DHT22;59073;51.994;4.448;2024-03-29T06:42:56;9.54;79.54
71291;DHT22;59073;51.994;4.448;2024-03-29T06:45:23;9.57;79.56
71291;DHT22;59073;51.994;4.448;2024-03-29T06:47:48;9.64;79.64
71291;DHT22;59073;51.994;4.448;2024-03-29T06:50:14;9.69;79.05
71291;DHT22;59073;51.994;4.448;2024-03-29T06:52:39;9.63;79.25
71291;DHT22;59073;51.994;4.448;2024-03-29T06:55:05;9.74;79.28
71291;DHT22;59073;51.994;4.448;2024-03-29T06:57:31;9.71;78.72
71291;DHT22;59073;51.994;4.448;2024-03-29T06:59:57;9.67;79.34
71291;DHT22;59073;51.994;4.448;2024-03-29T07:02:23;9.67;79.23
71291;DHT22;59073;51.994;4.448;2024-03-29T07:04:49;9.71;79.45
71291;DHT22;59073;51.994;4.448;2024-03-29T07:07:14;9.83;78.91
71291;DHT22;59073;51.994;4.448;2024-03-29T07:09:40;9.88;78.59
71291;DHT22;59073;51.994;4.448;2024-03-29T07:12:05;10.11;78.28
71291;DHT22;59073;51.994;4.448;2024-03-29T07:14:31;10.53;77.11
71291;DHT22;59073;51.994;4.448;2024-03-29T07:16:58;11.19;75.21
71291;DHT22;59073;51.994;4.448;2024-03-29T07:19:24;11.35;73.87
71291;DHT22;59073;51.994;4.448;2024-03-29T07:21:49;11.04;74.73
71291;DHT22;59073;51.994;4.448;2024-03-29T07:24:19;10.59;75.89
71291;DHT22;59073;51.994;4.448;2024-03-29T07:26:45;10.29;76.92
71291;DHT22;59073;51.994;4.448;2024-03-29T07:29:11;10.35;77.63
71291;DHT22;59073;51.994;4.448;2024-03-29T07:31:37;10.62;77.03
71291;DHT22;59073;51.994;4.448;2024-03-29T07:34:02;10.96;76.01
71291;DHT22;59073;51.994;4.448;2024-03-29T07:36:27;11.14;75.62
71291;DHT22;59073;51.994;4.448;2024-03-29T07:39:00;11.54;75.06
71291;DHT22;59073;51.994;4.448;2024-03-29T07:41:25;11.71;74.40
71291;DHT22;59073;51.994;4.448;2024-03-29T07:43:55;11.82;73.22
71291;DHT22;59073;51.994;4.448;2024-03-29T07:46:27;12.12;73.41
71291;DHT22;59073;51.994;4.448;2024-03-29T07:48:52;12.28;72.87
71291;DHT22;59073;51.994;4.448;2024-03-29T07:51:18;12.20;71.94
71291;DHT22;59073;51.994;4.448;2024-03-29T07:53:43;12.13;72.75
71291;DHT22;59073;51.994;4.448;2024-03-29T07:56:09;11.96;73.33
71291;DHT22;59073;51.994;4.448;2024-03-29T07:58:34;12.28;72.86
71291;DHT22;59073;51.994;4.448;2024-03-29T08:01:00;12.76;71.75
71291;DHT22;59073;51.994;4.448;2024-03-29T08:03:25;12.87;70.80
71291;DHT22;59073;51.994;4.448;2024-03-29T08:06:01;12.81;70.35
71291;DHT22;59073;51.994;4.448;2024-03-29T08:08:33;12.70;70.60
71291;DHT22;59073;51.994;4.448;2024-03-29T08:10:59;12.59;71.47
71291;DHT22;59073;51.994;4.448;2024-03-29T08:13:26;12.41;71.02
71291;DHT22;59073;51.994;4.448;2024-03-29T08:15:58;12.34;73.01
71291;DHT22;59073;51.994;4.448;2024-03-29T08:18:25;12.30;72.07
71291;DHT22;59073;51.994;4.448;2024-03-29T08:20:50;12.25;72.20
71291;DHT22;59073;51.994;4.448;2024-03-29T08:23:15;12.25;72.55
71291;DHT22;59073;51.994;4.448;2024-03-29T08:25:41;12.25;72.13
71291;DHT22;59073;51.994;4.448;2024-03-29T08:28:06;12.33;72.10
71291;DHT22;59073;51.994;4.448;2024-03-29T08:30:32;12.32;71.89
71291;DHT22;59073;51.994;4.448;2024-03-29T08:33:01;12.41;71.81
71291;DHT22;59073;51.994;4.448;2024-03-29T08:35:29;12.39;71.70
71291;DHT22;59073;51.994;4.448;2024-03-29T08:37:54;12.43;71.72
71291;DHT22;59073;51.994;4.448;2024-03-29T08:40:19;12.39;71.44
71291;DHT22;59073;51.994;4.448;2024-03-29T08:42:45;12.19;71.77
71291;DHT22;59073;51.994;4.448;2024-03-29T08:45:10;12.25;71.86
71291;DHT22;59073;51.994;4.448;2024-03-29T08:47:37;12.20;72.55
71291;DHT22;59073;51.994;4.448;2024-03-29T08:50:02;12.12;72.95
71291;DHT22;59073;51.994;4.448;2024-03-29T08:52:30;12.16;73.18
71291;DHT22;59073;51.994;4.448;2024-03-29T08:54:55;12.05;73.07
71291;DHT22;59073;51.994;4.448;2024-03-29T08:57:21;11.89;73.76
71291;DHT22;59073;51.994;4.448;2024-03-29T08:59:46;12.03;73.62
71291;DHT22;59073;51.994;4.448;2024-03-29T09:02:12;12.29;73.29
71291;DHT22;59073;51.994;4.448;2024-03-29T09:04:37;12.23;72.89
71291;DHT22;59073;51.994;4.448;2024-03-29T09:07:03;12.44;73.50
71291;DHT22;59073;51.994;4.448;2024-03-29T09:09:29;12.34;73.07
71291;DHT22;59073;51.994;4.448;2024-03-29T09:11:55;12.32;73.00
71291;DHT22;59073;51.994;4.448;2024-03-29T09:14:21;12.39;73.19
71291;DHT22;59073;51.994;4.448;2024-03-29T09:16:46;12.44;73.00
71291;DHT22;59073;51.994;4.448;2024-03-29T09:19:14;12.54;73.14
71291;DHT22;59073;51.994;4.448;2024-03-29T09:21:40;12.50;72.85
71291;DHT22;59073;51.994;4.448;2024-03-29T09:24:06;12.56;72.78
71291;DHT22;59073;51.994;4.448;2024-03-29T09:26:33;12.70;73.33
71291;DHT22;59073;51.994;4.448;2024-03-29T09:28:58;12.71;72.12
71291;DHT22;59073;51.994;4.448;2024-03-29T09:31:24;12.85;71.86
71291;DHT22;59073;51.994;4.448;2024-03-29T09:33:49;12.95;72.42
71291;DHT22;59073;51.994;4.448;2024-03-29T09:36:22;13.02;72.18
71291;DHT22;59073;51.994;4.448;2024-03-29T09:38:51;12.92;72.42
71291;DHT22;59073;51.994;4.448;2024-03-29T09:41:18;12.98;71.71
71291;DHT22;59073;51.994;4.448;2024-03-29T09:43:46;12.94;71.41
71291;DHT22;59073;51.994;4.448;2024-03-29T09:46:16;12.80;71.51
71291;DHT22;59073;51.994;4.448;2024-03-29T09:48:45;12.83;72.25
71291;DHT22;59073;51.994;4.448;2024-03-29T09:51:13;12.77;72.17
71291;DHT22;59073;51.994;4.448;2024-03-29T09:53:42;12.71;72.30
71291;DHT22;59073;51.994;4.448;2024-03-29T09:56:09;12.64;72.57
71291;DHT22;59073;51.994;4.448;2024-03-29T09:58:37;12.50;73.11
71291;DHT22;59073;51.994;4.448;2024-03-29T10:01:04;12.40;73.31
71291;DHT22;59073;51.994;4.448;2024-03-29T10:03:32;12.32;73.46
71291;DHT22;59073;51.994;4.448;2024-03-29T10:06:01;12.30;73.34
71291;DHT22;59073;51.994;4.448;2024-03-29T10:08:28;12.51;73.86
71291;DHT22;59073;51.994;4.448;2024-03-29T10:10:58;12.54;72.38
71291;DHT22;59073;51.994;4.448;2024-03-29T10:13:24;12.57;72.87
71291;DHT22;59073;51.994;4.448;2024-03-29T10:15:51;12.76;72.25
71291;DHT22;59073;51.994;4.448;2024-03-29T10:18:19;13.22;71.52
71291;DHT22;59073;51.994;4.448;2024-03-29T10:21:07;13.42;71.08
71291;DHT22;59073;51.994;4.448;2024-03-29T10:23:34;13.70;69.76
71291;DHT22;59073;51.994;4.448;2024-03-29T10:26:03;13.97;69.14
71291;DHT22;59073;51.994;4.448;2024-03-29T10:28:34;14.14;69.78
71291;DHT22;59073;51.994;4.448;2024-03-29T10:31:05;13.93;68.43
71291;DHT22;59073;51.994;4.448;2024-03-29T10:33:31;14.04;69.40
71291;DHT22;59073;51.994;4.448;2024-03-29T10:35:59;14.51;67.93
71291;DHT22;59073;51.994;4.448;2024-03-29T10:38:26;14.72;66.62
71291;DHT22;59073;51.994;4.448;2024-03-29T10:40:52;14.83;65.14
71291;DHT22;59073;51.994;4.448;2024-03-29T10:43:19;14.93;66.23
71291;DHT22;59073;51.994;4.448;2024-03-29T10:45:47;14.68;65.07
71291;DHT22;59073;51.994;4.448;2024-03-29T10:48:15;14.78;66.40
71291;DHT22;59073;51.994;4.448;2024-03-29T10:50:42;14.92;66.42
71291;DHT22;59073;51.994;4.448;2024-03-29T10:53:09;14.89;64.94
71291;DHT22;59073;51.994;4.448;2024-03-29T10:55:37;14.64;65.25
71291;DHT22;59073;51.994;4.448;2024-03-29T10:58:07;14.58;66.55
71291;DHT22;59073;51.994;4.448;2024-03-29T11:00:47;14.51;66.88
71291;DHT22;59073;51.994;4.448;2024-03-29T11:03:19;14.79;66.73
71291;DHT22;59073;51.994;4.448;2024-03-29T11:05:50;14.81;65.14
71291;DHT22;59073;51.994;4.448;2024-03-29T11:08:27;14.68;66.88
71291;DHT22;59073;51.994;4.448;2024-03-29T11:10:58;15.12;66.16
71291;DHT22;59073;51.994;4.448;2024-03-29T11:14:06;15.50;63.88
71291;DHT22;59073;51.994;4.448;2024-03-29T11:16:33;15.90;63.96
71291;DHT22;59073;51.994;4.448;2024-03-29T11:18:59;15.46;62.82
71291;DHT22;59073;51.994;4.448;2024-03-29T11:21:27;15.12;64.30
71291;DHT22;59073;51.994;4.448;2024-03-29T11:23:54;14.99;63.40
71291;DHT22;59073;51.994;4.448;2024-03-29T11:26:20;15.22;64.13
71291;DHT22;59073;51.994;4.448;2024-03-29T11:28:51;15.31;63.66
71291;DHT22;59073;51.994;4.448;2024-03-29T11:31:17;15.18;64.86
71291;DHT22;59073;51.994;4.448;2024-03-29T11:33:48;15.12;63.36
71291;DHT22;59073;51.994;4.448;2024-03-29T11:36:21;15.07;63.99
71291;DHT22;59073;51.994;4.448;2024-03-29T11:38:51;15.22;63.87
71291;DHT22;59073;51.994;4.448;2024-03-29T11:41:24;15.29;64.10
71291;DHT22;59073;51.994;4.448;2024-03-29T11:43:53;15.46;63.96
71291;DHT22;59073;51.994;4.448;2024-03-29T11:46:19;15.34;64.20
71291;DHT22;59073;51.994;4.448;2024-03-29T11:48:46;15.61;63.31
71291;DHT22;59073;51.994;4.448;2024-03-29T11:51:14;15.71;63.05
71291;DHT22;59073;51.994;4.448;2024-03-29T11:53:41;15.55;61.65
71291;DHT22;59073;51.994;4.448;2024-03-29T11:56:07;15.50;63.60
71291;DHT22;59073;51.994;4.448;2024-03-29T11:58:34;15.81;62.31
71291;DHT22;59073;51.994;4.448;2024-03-29T12:01:00;16.06;63.15
71291;DHT22;59073;51.994;4.448;2024-03-29T12:03:28;16.18;62.58
71291;DHT22;59073;51.994;4.448;2024-03-29T12:05:55;16.16;63.55
71291;DHT22;59073;51.994;4.448;2024-03-29T12:08:28;15.92;62.37
71291;DHT22;59073;51.994;4.448;2024-03-29T12:10:54;15.74;63.42
71291;DHT22;59073;51.994;4.448;2024-03-29T12:13:19;15.54;63.59
71291;DHT22;59073;51.994;4.448;2024-03-29T12:15:45;15.30;62.97
71291;DHT22;59073;51.994;4.448;2024-03-29T12:18:10;15.27;64.45
71291;DHT22;59073;51.994;4.448;2024-03-29T12:20:40;15.30;64.71
71291;DHT22;59073;51.994;4.448;2024-03-29T12:23:08;15.34;64.43
71291;DHT22;59073;51.994;4.448;2024-03-29T12:25:36;15.16;63.77
71291;DHT22;59073;51.994;4.448;2024-03-29T12:28:02;15.06;64.12
71291;DHT22;59073;51.994;4.448;2024-03-29T12:30:28;14.92;64.66
71291;DHT22;59073;51.994;4.448;2024-03-29T12:33:05;15.09;64.87
71291;DHT22;59073;51.994;4.448;2024-03-29T12:35:41;15.26;63.36
71291;DHT22;59073;51.994;4.448;2024-03-29T12:38:07;15.58;64.88
71291;DHT22;59073;51.994;4.448;2024-03-29T12:40:34;15.58;63.15
71291;DHT22;59073;51.994;4.448;2024-03-29T12:43:07;15.70;63.45
71291;DHT22;59073;51.994;4.448;2024-03-29T12:45:41;15.90;63.43
71291;DHT22;59073;51.994;4.448;2024-03-29T12:48:27;15.85;61.61
71291;DHT22;59073;51.994;4.448;2024-03-29T12:50:52;15.97;62.57
71291;DHT22;59073;51.994;4.448;2024-03-29T12:53:19;16.13;61.90
71291;DHT22;59073;51.994;4.448;2024-03-29T12:55:47;16.45;60.89
71291;DHT22;59073;51.994;4.448;2024-03-29T12:58:16;16.76;61.68
71291;DHT22;59073;51.994;4.448;2024-03-29T13:00:44;16.60;60.43
71291;DHT22;59073;51.994;4.448;2024-03-29T13:03:10;16.77;61.38
71291;DHT22;59073;51.994;4.448;2024-03-29T13:05:36;16.46;58.48
71291;DHT22;59073;51.994;4.448;2024-03-29T13:08:11;16.39;60.16
71291;DHT22;59073;51.994;4.448;2024-03-29T13:10:40;16.26;60.04
71291;DHT22;59073;51.994;4.448;2024-03-29T13:13:06;16.25;60.86
71291;DHT22;59073;51.994;4.448;2024-03-29T13:15:35;16.36;60.33
71291;DHT22;59073;51.994;4.448;2024-03-29T13:18:02;16.57;62.48
71291;DHT22;59073;51.994;4.448;2024-03-29T13:20:29;16.66;60.67
71291;DHT22;59073;51.994;4.448;2024-03-29T13:22:55;16.64;60.15
71291;DHT22;59073;51.994;4.448;2024-03-29T13:25:22;16.39;58.86
71291;DHT22;59073;51.994;4.448;2024-03-29T13:27:53;16.36;59.42
71291;DHT22;59073;51.994;4.448;2024-03-29T13:30:23;16.16;59.61
71291;DHT22;59073;51.994;4.448;2024-03-29T13:32:49;15.72;60.00
71291;DHT22;59073;51.994;4.448;2024-03-29T13:35:15;15.71;60.75
71291;DHT22;59073;51.994;4.448;2024-03-29T13:37:42;15.87;62.93
71291;DHT22;59073;51.994;4.448;2024-03-29T13:40:09;16.02;60.45
71291;DHT22;59073;51.994;4.448;2024-03-29T13:42:39;15.84;59.52
71291;DHT22;59073;51.994;4.448;2024-03-29T13:45:05;15.74;60.54
71291;DHT22;59073;51.994;4.448;2024-03-29T13:47:32;15.88;60.80
71291;DHT22;59073;51.994;4.448;2024-03-29T13:49:58;15.91;60.27
71291;DHT22;59073;51.994;4.448;2024-03-29T13:52:23;16.02;59.97
71291;DHT22;59073;51.994;4.448;2024-03-29T13:54:49;16.08;58.81
71291;DHT22;59073;51.994;4.448;2024-03-29T13:57:18;15.87;60.05
71291;DHT22;59073;51.994;4.448;2024-03-29T13:59:44;15.64;58.08
71291;DHT22;59073;51.994;4.448;2024-03-29T14:02:15;15.58;59.34
71291;DHT22;59073;51.994;4.448;2024-03-29T14:04:42;15.61;59.83
71291;DHT22;59073;51.994;4.448;2024-03-29T14:07:09;15.62;58.97
71291;DHT22;59073;51.994;4.448;2024-03-29T14:09:44;15.54;58.67
71291;DHT22;59073;51.994;4.448;2024-03-29T14:12:09;15.40;59.05
71291;DHT22;59073;51.994;4.448;2024-03-29T14:14:36;15.46;59.08
71291;DHT22;59073;51.994;4.448;2024-03-29T14:17:02;15.46;59.86
71291;DHT22;59073;51.994;4.448;2024-03-29T14:19:32;15.41;59.11
71291;DHT22;59073;51.994;4.448;2024-03-29T14:22:09;15.33;60.25
71291;DHT22;59073;51.994;4.448;2024-03-29T14:24:34;15.44;59.03
71291;DHT22;59073;51.994;4.448;2024-03-29T14:27:05;15.43;58.18
71291;DHT22;59073;51.994;4.448;2024-03-29T14:29:31;15.54;59.19
71291;DHT22;59073;51.994;4.448;2024-03-29T14:31:57;15.58;59.29
71291;DHT22;59073;51.994;4.448;2024-03-29T14:34:23;15.53;60.09
71291;DHT22;59073;51.994;4.448;2024-03-29T14:36:51;15.61;61.80
71291;DHT22;59073;51.994;4.448;2024-03-29T14:39:16;15.62;59.70
71291;DHT22;59073;51.994;4.448;2024-03-29T14:41:43;15.65;59.23
71291;DHT22;59073;51.994;4.448;2024-03-29T14:44:11;15.61;59.06
71291;DHT22;59073;51.994;4.448;2024-03-29T14:46:37;15.60;58.19
71291;DHT22;59073;51.994;4.448;2024-03-29T14:49:03;15.50;58.84
71291;DHT22;59073;51.994;4.448;2024-03-29T14:51:34;15.44;56.83
71291;DHT22;59073;51.994;4.448;2024-03-29T14:54:00;15.36;56.34
71291;DHT22;59073;51.994;4.448;2024-03-29T14:56:28;15.40;55.97
71291;DHT22;59073;51.994;4.448;2024-03-29T14:58:56;15.31;56.49
71291;DHT22;59073;51.994;4.448;2024-03-29T15:01:23;15.43;58.94
71291;DHT22;59073;51.994;4.448;2024-03-29T15:03:48;15.40;59.07
71291;DHT22;59073;51.994;4.448;2024-03-29T15:06:15;15.23;58.82
71291;DHT22;59073;51.994;4.448;2024-03-29T15:08:41;15.29;59.41
71291;DHT22;59073;51.994;4.448;2024-03-29T15:11:06;15.16;59.00
71291;DHT22;59073;51.994;4.448;2024-03-29T15:13:32;15.18;58.70
71291;DHT22;59073;51.994;4.448;2024-03-29T15:16:00;15.19;59.16
71291;DHT22;59073;51.994;4.448;2024-03-29T15:18:26;15.20;59.00
71291;DHT22;59073;51.994;4.448;2024-03-29T15:21:01;15.20;59.21
71291;DHT22;59073;51.994;4.448;2024-03-29T15:23:28;15.24;59.32
71291;DHT22;59073;51.994;4.448;2024-03-29T15:25:55;15.30;57.99
71291;DHT22;59073;51.994;4.448;2024-03-29T15:28:23;15.36;58.36
71291;DHT22;59073;51.994;4.448;2024-03-29T15:33:35;15.39;60.64